Fairway, Kansas
Current Conditions -  °F | °C
As of 3:54 AM on Thursday 27 Nov 2014 (Local Time) from KMKC Reporting Station
Overcast Overcast  
Wind Chill: 20°   Ceiling: 1800
Heat Index: 28°   Visibility: 9mi
Dew Point: 20°   Wind: 8mph
Humidity: 72%   Direction: 330°NNW
Pressure: 30.49"   Gusts: NA
Location:  39.0312°N, 94.6315°W
Report Text: KMKC 270954Z 33007KT 9SM OVC018 M02/M07 A3049 RMK AO2 SLP331 T10221067
Loading
Personal Weather Stations






























Interactive Weather Map New forecast layout! Learn more

10-Day Weather Forecast

Advertisements
Track Severe Weather on mobile